createdAt,value
2023-01-13T00:01:46.477Z,13.85
2023-01-13T00:04:31.949Z,11.82
2023-01-13T00:07:17.356Z,10.85
2023-01-13T00:10:02.599Z,12.18
2023-01-13T00:12:48.117Z,10.77
2023-01-13T00:15:33.960Z,10.50
2023-01-13T00:18:19.405Z,12.90
2023-01-13T00:21:08.088Z,10.85
2023-01-13T00:23:55.259Z,12.13
2023-01-13T00:26:41.075Z,9.75
2023-01-13T00:29:26.753Z,9.75
2023-01-13T00:32:12.217Z,10.13
2023-01-13T00:34:58.887Z,11.13
2023-01-13T00:37:44.414Z,10.40
2023-01-13T00:40:29.794Z,9.88
2023-01-13T00:43:24.233Z,10.30
2023-01-13T00:46:12.273Z,10.88
2023-01-13T00:48:57.910Z,10.30
2023-01-13T00:51:43.266Z,9.98
2023-01-13T00:54:28.727Z,10.68
2023-01-13T00:57:15.409Z,12.35
2023-01-13T01:00:00.827Z,10.48
2023-01-13T01:02:46.198Z,9.25
2023-01-13T01:05:33.648Z,10.27
2023-01-13T01:08:19.368Z,9.98
2023-01-13T01:11:07.657Z,9.88
2023-01-13T01:13:56.061Z,11.23
2023-01-13T01:16:42.292Z,9.02
2023-01-13T01:19:28.212Z,8.55
2023-01-13T01:22:13.600Z,9.88
2023-01-13T01:24:58.936Z,10.27
2023-01-13T01:27:44.152Z,9.07
2023-01-13T01:30:29.985Z,9.25
2023-01-13T01:33:16.854Z,10.38
2023-01-13T01:36:03.775Z,10.50
2023-01-13T01:38:50.044Z,9.30
2023-01-13T01:41:36.747Z,9.52
2023-01-13T01:44:41.547Z,10.43
2023-01-13T01:47:30.580Z,9.98
2023-01-13T01:50:19.966Z,9.93
2023-01-13T01:53:15.805Z,9.60
2023-01-13T01:56:02.383Z,9.05
2023-01-13T01:58:51.193Z,9.50
2023-01-13T02:01:37.728Z,9.38
2023-01-13T02:04:31.848Z,9.13
2023-01-13T02:07:23.881Z,8.30
2023-01-13T02:10:12.931Z,10.48
2023-01-13T02:13:02.881Z,9.50
2023-01-13T02:16:02.453Z,10.50
2023-01-13T02:19:11.354Z,9.20
2023-01-13T02:22:19.608Z,8.93
2023-01-13T02:25:17.272Z,10.40
2023-01-13T02:28:22.182Z,10.18
2023-01-13T02:31:33.317Z,8.35
2023-01-13T02:34:51.456Z,8.30
2023-01-13T02:37:41.458Z,7.50
2023-01-13T02:40:37.773Z,7.40
2023-01-13T02:43:57.535Z,8.85
2023-01-13T02:46:48.974Z,8.25
2023-01-13T02:49:39.281Z,9.23
2023-01-13T02:52:57.219Z,7.68
2023-01-13T02:55:53.754Z,8.68
2023-01-13T02:58:42.099Z,9.48
2023-01-13T03:01:27.850Z,7.50
2023-01-13T03:04:32.932Z,8.77
2023-01-13T03:07:24.542Z,8.52
2023-01-13T03:10:27.971Z,8.07
2023-01-13T03:13:35.762Z,8.65
2023-01-13T03:16:28.527Z,8.82
2023-01-13T03:19:22.871Z,8.23
2023-01-13T03:22:28.383Z,9.10
2023-01-13T03:25:37.149Z,8.00
2023-01-13T03:28:40.893Z,8.73
2023-01-13T03:31:31.775Z,8.30
2023-01-13T03:34:22.430Z,7.95
2023-01-13T03:37:09.376Z,9.45
2023-01-13T03:40:00.206Z,7.30
2023-01-13T03:43:11.838Z,6.70
2023-01-13T03:46:03.349Z,7.25
2023-01-13T03:48:54.965Z,9.20
2023-01-13T03:51:43.661Z,7.50
2023-01-13T03:54:32.561Z,7.35
2023-01-13T03:57:23.052Z,6.53
2023-01-13T04:00:12.141Z,7.60
2023-01-13T04:03:04.021Z,8.68
2023-01-13T04:05:57.807Z,8.15
2023-01-13T04:08:51.161Z,5.40
2023-01-13T04:11:43.095Z,7.68
2023-01-13T04:14:29.423Z,6.55
2023-01-13T04:17:16.386Z,8.88
2023-01-13T04:20:02.008Z,5.65
2023-01-13T04:22:47.426Z,7.72
2023-01-13T04:25:33.086Z,6.60
2023-01-13T04:28:20.272Z,7.97
2023-01-13T04:31:06.135Z,7.90
2023-01-13T04:33:51.177Z,8.20
2023-01-13T04:36:36.867Z,6.97
2023-01-13T04:39:22.130Z,8.43
2023-01-13T04:42:08.038Z,7.55
2023-01-13T04:44:53.460Z,9.02
2023-01-13T04:47:39.400Z,8.73
2023-01-13T04:50:25.855Z,8.38
2023-01-13T04:53:11.427Z,7.95
2023-01-13T04:55:56.874Z,8.07
2023-01-13T04:58:42.260Z,6.63
2023-01-13T05:01:28.421Z,8.25
2023-01-13T05:04:15.558Z,8.50
2023-01-13T05:07:01.364Z,8.77
2023-01-13T05:09:46.947Z,8.32
2023-01-13T05:12:51.465Z,8.40
2023-01-13T05:15:55.626Z,8.88
2023-01-13T05:18:40.866Z,8.68
2023-01-13T05:21:44.863Z,8.38
2023-01-13T05:24:56.413Z,8.38
2023-01-13T05:27:42.051Z,9.02
2023-01-13T05:30:30.263Z,7.68
2023-01-13T05:33:17.796Z,8.23
2023-01-13T05:36:03.940Z,7.78
2023-01-13T05:38:51.564Z,6.78
2023-01-13T05:41:55.800Z,7.72
2023-01-13T05:44:41.007Z,7.80
2023-01-13T05:47:26.793Z,8.82
2023-01-13T05:50:12.163Z,6.82
2023-01-13T05:52:57.762Z,7.13
2023-01-13T05:55:44.056Z,7.93
2023-01-13T05:58:29.536Z,8.27
2023-01-13T06:01:14.871Z,9.43
2023-01-13T06:04:00.194Z,11.32
2023-01-13T06:06:45.461Z,12.27
2023-01-13T06:09:30.822Z,10.95
2023-01-13T06:12:16.089Z,10.60
2023-01-13T06:15:01.565Z,9.77
2023-01-13T06:17:47.338Z,7.57
2023-01-13T06:20:33.302Z,8.35
2023-01-13T06:23:19.153Z,7.72
2023-01-13T06:26:12.064Z,8.82
2023-01-13T06:28:57.401Z,8.27
2023-01-13T06:31:43.287Z,8.23
2023-01-13T06:34:29.593Z,7.88
2023-01-13T06:37:19.982Z,8.52
2023-01-13T06:40:07.411Z,8.40
2023-01-13T06:43:16.340Z,8.30
2023-01-13T06:46:03.058Z,8.40
2023-01-13T06:48:52.156Z,7.35
2023-01-13T06:51:39.402Z,7.38
2023-01-13T06:54:25.834Z,8.95
2023-01-13T06:57:13.158Z,8.68
2023-01-13T06:59:59.394Z,9.85
2023-01-13T07:02:44.889Z,8.82
2023-01-13T07:05:30.243Z,8.57
2023-01-13T07:08:15.520Z,9.77
2023-01-13T07:11:04.360Z,9.70
2023-01-13T07:14:08.566Z,9.48
2023-01-13T07:16:54.324Z,10.95
2023-01-13T07:19:39.692Z,11.00
2023-01-13T07:22:25.319Z,11.52
2023-01-13T07:25:11.388Z,8.70
2023-01-13T07:27:57.541Z,10.00
2023-01-13T07:30:42.858Z,9.80
2023-01-13T07:33:28.520Z,10.13
2023-01-13T07:36:15.051Z,10.32
2023-01-13T07:39:00.554Z,10.18
2023-01-13T07:42:05.036Z,11.57
2023-01-13T07:44:50.667Z,11.02
2023-01-13T07:47:36.058Z,11.77
2023-01-13T07:50:23.630Z,10.02
2023-01-13T07:53:09.040Z,10.60
2023-01-13T07:55:56.977Z,10.40
2023-01-13T07:58:42.758Z,8.02
2023-01-13T08:01:28.782Z,11.80
2023-01-13T08:04:14.475Z,10.05
2023-01-13T08:07:00.186Z,9.88
2023-01-13T08:09:45.564Z,8.18
2023-01-13T08:12:54.014Z,9.35
2023-01-13T08:15:42.983Z,10.32
2023-01-13T08:18:28.395Z,9.73
2023-01-13T08:21:15.049Z,10.50
2023-01-13T08:24:00.986Z,9.25
2023-01-13T08:26:46.382Z,7.32
2023-01-13T08:29:31.621Z,10.68
2023-01-13T08:32:17.341Z,10.48
2023-01-13T08:35:03.100Z,9.13
2023-01-13T08:37:49.066Z,9.30
2023-01-13T08:40:34.700Z,10.02
2023-01-13T08:43:20.285Z,10.02
2023-01-13T08:46:07.287Z,9.05
2023-01-13T08:48:52.872Z,9.60
2023-01-13T08:51:38.606Z,7.20
2023-01-13T08:54:24.183Z,8.43
2023-01-13T08:57:09.614Z,8.25
2023-01-13T08:59:55.093Z,9.70
2023-01-13T09:02:40.660Z,8.52
2023-01-13T09:05:26.338Z,7.15
2023-01-13T09:08:12.580Z,7.70
2023-01-13T09:10:58.246Z,8.35
2023-01-13T09:13:43.696Z,8.75
2023-01-13T09:16:29.255Z,11.40
2023-01-13T09:19:15.024Z,8.18
2023-01-13T09:22:01.243Z,9.23
2023-01-13T09:24:46.636Z,8.48
2023-01-13T09:27:32.303Z,8.82
2023-01-13T09:30:18.164Z,8.52
2023-01-13T09:33:22.174Z,9.18
2023-01-13T09:36:07.977Z,6.60
2023-01-13T09:38:53.710Z,9.93
2023-01-13T09:42:02.804Z,8.88
2023-01-13T09:45:05.195Z,10.05
2023-01-13T09:50:48.301Z,10.65
2023-01-13T09:53:38.637Z,9.98
2023-01-13T09:56:25.804Z,15.05
2023-01-13T09:59:12.344Z,10.18
2023-01-13T10:02:08.046Z,11.65
2023-01-13T10:05:20.981Z,9.00
2023-01-13T10:08:13.385Z,13.68
2023-01-13T10:11:23.892Z,10.77
2023-01-13T10:14:18.526Z,11.68
2023-01-13T10:17:22.557Z,13.32
2023-01-13T10:20:31.085Z,11.82
2023-01-13T10:23:39.063Z,11.88
2023-01-13T10:26:50.417Z,13.35
2023-01-13T10:29:36.808Z,11.35
2023-01-13T10:32:22.565Z,13.50
2023-01-13T10:35:08.732Z,15.43
2023-01-13T10:37:57.581Z,14.90
2023-01-13T10:40:52.091Z,12.68
2023-01-13T10:43:37.932Z,12.48
2023-01-13T10:46:23.938Z,11.68
2023-01-13T10:49:38.662Z,13.80
2023-01-13T10:52:27.371Z,13.75
2023-01-13T10:55:34.317Z,12.00
2023-01-13T10:58:21.140Z,12.93
2023-01-13T11:01:09.504Z,13.65
2023-01-13T11:03:55.795Z,12.63
2023-01-13T11:06:46.035Z,12.88
2023-01-13T11:09:32.875Z,12.15
2023-01-13T11:12:34.026Z,13.57
2023-01-13T11:15:34.498Z,12.98
2023-01-13T11:18:25.586Z,12.18
2023-01-13T11:21:43.717Z,11.57
2023-01-13T11:24:50.777Z,11.90
2023-01-13T11:28:11.006Z,11.52
2023-01-13T11:31:05.577Z,12.70
2023-01-13T11:34:03.507Z,12.65
2023-01-13T11:36:55.619Z,12.43
2023-01-13T11:40:26.296Z,12.88
2023-01-13T11:43:16.825Z,13.80
2023-01-13T11:46:02.783Z,13.75
2023-01-13T11:48:48.483Z,13.38
2023-01-13T11:51:50.506Z,13.75
2023-01-13T11:54:54.820Z,12.90
2023-01-13T11:58:03.477Z,10.60
2023-01-13T12:01:23.411Z,11.75
2023-01-13T12:04:40.187Z,11.70
2023-01-13T12:07:47.999Z,12.32
2023-01-13T12:11:00.407Z,13.48
2023-01-13T12:14:09.380Z,13.43
2023-01-13T12:16:56.323Z,14.82
2023-01-13T12:19:51.673Z,14.45
2023-01-13T12:22:38.662Z,14.48
2023-01-13T12:25:30.955Z,13.35
2023-01-13T12:28:23.186Z,13.85
2023-01-13T12:31:09.870Z,13.45
2023-01-13T12:34:19.957Z,15.38
2023-01-13T12:37:24.258Z,13.10
2023-01-13T12:40:28.350Z,13.65
2023-01-13T12:43:41.543Z,12.98
2023-01-13T12:46:27.017Z,13.57
2023-01-13T12:49:24.490Z,13.35
2023-01-13T12:52:14.447Z,13.32
2023-01-13T12:55:03.833Z,15.23
2023-01-13T12:58:04.740Z,14.13
2023-01-13T13:01:13.715Z,15.13
2023-01-13T13:04:41.089Z,14.30
2023-01-13T13:07:37.186Z,11.82
2023-01-13T13:10:31.765Z,14.57
2023-01-13T13:13:47.197Z,13.98
2023-01-13T13:16:36.238Z,13.70
2023-01-13T13:19:21.790Z,17.02
2023-01-13T13:22:07.400Z,14.93
2023-01-13T13:24:56.208Z,15.55
2023-01-13T13:27:48.998Z,14.48
2023-01-13T13:30:37.180Z,20.85
2023-01-13T13:33:31.996Z,17.30
2023-01-13T13:36:30.681Z,15.55
2023-01-13T13:39:42.374Z,16.80
2023-01-13T13:42:39.199Z,15.52
2023-01-13T13:45:45.455Z,15.90
2023-01-13T13:48:31.296Z,12.82
2023-01-13T13:51:22.334Z,12.85
2023-01-13T13:54:18.291Z,14.70
2023-01-13T13:57:03.777Z,12.57
2023-01-13T13:59:57.902Z,12.57
2023-01-13T14:03:22.511Z,15.98
2023-01-13T14:06:24.302Z,12.20
2023-01-13T14:09:17.361Z,10.63
2023-01-13T14:12:08.656Z,11.88
2023-01-13T14:15:00.142Z,13.07
2023-01-13T14:17:45.654Z,12.57
2023-01-13T14:20:31.639Z,14.75
2023-01-13T14:23:18.373Z,12.98
2023-01-13T14:26:08.960Z,17.98
2023-01-13T14:28:56.451Z,16.90
2023-01-13T14:31:43.511Z,15.82
2023-01-13T14:34:31.683Z,16.83
2023-01-13T14:37:24.095Z,18.77
2023-01-13T14:40:44.621Z,15.20
2023-01-13T14:43:30.021Z,17.00
2023-01-13T14:46:17.728Z,16.73
2023-01-13T14:49:04.048Z,16.33
2023-01-13T14:51:50.545Z,17.38
2023-01-13T14:54:53.772Z,16.83
2023-01-13T14:57:41.696Z,15.85
2023-01-13T15:00:27.317Z,15.90
2023-01-13T15:03:21.286Z,15.50
2023-01-13T15:06:22.631Z,16.15
2023-01-13T15:09:13.149Z,15.40
2023-01-13T15:12:00.085Z,17.48
2023-01-13T15:14:50.275Z,18.65
2023-01-13T15:17:35.612Z,16.20
2023-01-13T15:20:23.065Z,21.13
2023-01-13T15:23:09.183Z,17.80
2023-01-13T15:25:54.673Z,19.08
2023-01-13T15:28:40.037Z,16.95
2023-01-13T15:31:26.400Z,18.45
2023-01-13T15:34:11.758Z,19.13
2023-01-13T15:36:57.136Z,15.88
2023-01-13T15:39:42.901Z,16.83
2023-01-13T15:42:47.228Z,16.33
2023-01-13T15:45:54.210Z,15.85
2023-01-13T15:48:40.649Z,15.85
2023-01-13T15:51:25.935Z,17.58
2023-01-13T15:54:12.043Z,17.55
2023-01-13T15:56:58.130Z,16.85
2023-01-13T15:59:43.859Z,16.25
2023-01-13T16:02:30.939Z,16.60
2023-01-13T16:05:16.752Z,15.82
2023-01-13T16:08:02.271Z,19.10
2023-01-13T16:10:48.836Z,16.38
2023-01-13T16:13:34.783Z,16.33
2023-01-13T16:16:23.045Z,17.38
2023-01-13T16:19:10.783Z,18.92
2023-01-13T16:21:59.786Z,18.80
2023-01-13T16:24:45.576Z,14.60
2023-01-13T16:27:31.069Z,14.27
2023-01-13T16:30:24.419Z,14.90
2023-01-13T16:33:10.142Z,12.73
2023-01-13T16:36:10.687Z,14.38
2023-01-13T16:41:43.913Z,11.40
2023-01-13T16:44:29.416Z,14.07
2023-01-13T16:47:17.682Z,14.48
2023-01-13T16:50:04.021Z,12.02
2023-01-13T16:52:49.804Z,13.50
2023-01-13T16:55:36.699Z,14.60
2023-01-13T16:58:23.388Z,12.15
2023-01-13T17:01:18.801Z,12.95
2023-01-13T17:04:05.317Z,12.07
2023-01-13T17:07:04.518Z,14.43
2023-01-13T17:09:50.191Z,13.25
2023-01-13T17:12:36.121Z,19.52
2023-01-13T17:15:21.833Z,15.00
2023-01-13T17:18:07.310Z,15.80
2023-01-13T17:20:52.871Z,12.52
2023-01-13T17:23:38.377Z,15.38
2023-01-13T17:26:37.408Z,13.15
2023-01-13T17:29:25.738Z,10.02
2023-01-13T17:32:16.739Z,13.27
2023-01-13T17:35:02.736Z,14.85
2023-01-13T17:37:48.281Z,18.95
2023-01-13T17:40:33.682Z,16.73
2023-01-13T17:43:19.106Z,18.67
2023-01-13T17:46:12.573Z,15.80
2023-01-13T17:48:58.065Z,15.30
2023-01-13T17:51:43.399Z,13.60
2023-01-13T17:54:28.992Z,12.73
2023-01-13T17:57:14.148Z,10.75
2023-01-13T17:59:59.802Z,9.80
2023-01-13T18:02:45.853Z,9.70
2023-01-13T18:05:34.109Z,10.13
2023-01-13T18:08:19.753Z,10.73
2023-01-13T18:11:06.332Z,10.18
2023-01-13T18:13:57.683Z,10.00
2023-01-13T18:16:44.158Z,10.60
2023-01-13T18:19:48.328Z,13.38
2023-01-13T18:22:52.442Z,13.27
2023-01-13T18:25:58.411Z,11.68
2023-01-13T18:28:44.168Z,13.57
2023-01-13T18:31:30.893Z,16.17
2023-01-13T18:34:16.647Z,13.57
2023-01-13T18:37:02.417Z,13.52
2023-01-13T18:39:48.163Z,14.15
2023-01-13T18:42:51.862Z,13.88
2023-01-13T18:45:38.433Z,13.40
2023-01-13T18:48:23.953Z,14.75
2023-01-13T18:51:09.350Z,13.55
2023-01-13T18:53:54.887Z,14.25
2023-01-13T18:56:40.346Z,17.13
2023-01-13T18:59:26.741Z,14.65
2023-01-13T19:02:21.417Z,13.50
2023-01-13T19:05:07.669Z,14.25
2023-01-13T19:07:53.787Z,14.50
2023-01-13T19:10:39.773Z,15.18
2023-01-13T19:13:25.455Z,14.68
2023-01-13T19:16:11.293Z,15.00
2023-01-13T19:18:56.904Z,14.57
2023-01-13T19:21:42.322Z,13.00
2023-01-13T19:24:27.865Z,13.88
2023-01-13T19:27:15.137Z,12.48
2023-01-13T19:30:01.868Z,11.27
2023-01-13T19:32:48.459Z,12.88
2023-01-13T19:35:37.344Z,11.57
2023-01-13T19:38:24.655Z,12.32
2023-01-13T19:41:33.579Z,12.73
2023-01-13T19:44:38.101Z,13.02
2023-01-13T19:47:25.296Z,12.90
2023-01-13T19:50:11.554Z,13.27
2023-01-13T19:52:57.495Z,12.73
2023-01-13T19:55:48.668Z,14.43
2023-01-13T19:58:35.185Z,13.45
2023-01-13T20:01:21.378Z,12.95
2023-01-13T20:04:14.215Z,13.85
2023-01-13T20:07:00.922Z,14.68
2023-01-13T20:09:46.513Z,14.80
2023-01-13T20:12:31.920Z,14.35
2023-01-13T20:15:17.529Z,14.80
2023-01-13T20:18:03.491Z,14.25
2023-01-13T20:20:49.239Z,14.00
2023-01-13T20:23:34.695Z,14.13
2023-01-13T20:26:22.845Z,13.05
2023-01-13T20:29:08.257Z,12.32
2023-01-13T20:31:54.491Z,10.80
2023-01-13T20:34:40.195Z,10.95
2023-01-13T20:37:26.378Z,10.57
2023-01-13T20:40:15.097Z,11.40
2023-01-13T20:43:00.991Z,10.52
2023-01-13T20:45:46.658Z,10.43
2023-01-13T20:48:32.076Z,11.20
2023-01-13T20:51:17.712Z,10.85
2023-01-13T20:54:03.547Z,10.63
2023-01-13T20:56:49.150Z,10.25
2023-01-13T20:59:35.057Z,11.13
2023-01-13T21:02:22.713Z,11.15
2023-01-13T21:05:09.689Z,11.60
2023-01-13T21:07:55.447Z,11.00
2023-01-13T21:10:40.859Z,12.13
2023-01-13T21:13:45.771Z,11.52
2023-01-13T21:16:31.298Z,11.70
2023-01-13T21:19:16.985Z,11.38
2023-01-13T21:22:04.073Z,13.13
2023-01-13T21:24:49.522Z,16.48
2023-01-13T21:27:34.865Z,17.05
2023-01-13T21:30:20.488Z,17.05
2023-01-13T21:33:07.654Z,18.92
2023-01-13T21:35:53.106Z,16.92
2023-01-13T21:38:38.962Z,15.38
2023-01-13T21:41:44.420Z,14.02
2023-01-13T21:44:48.684Z,13.93
2023-01-13T21:47:49.722Z,12.50
2023-01-13T21:50:37.997Z,13.10
2023-01-13T21:53:23.334Z,13.48
2023-01-13T21:56:08.711Z,13.00
2023-01-13T21:58:57.320Z,13.10
2023-01-13T22:02:04.775Z,13.77
2023-01-13T22:04:48.351Z,14.70
2023-01-13T22:07:36.132Z,12.00
2023-01-13T22:10:27.371Z,13.45
2023-01-13T22:13:31.582Z,12.20
2023-01-13T22:16:17.343Z,12.82
2023-01-13T22:19:03.204Z,12.27
2023-01-13T22:21:48.977Z,12.48
2023-01-13T22:24:34.333Z,13.38
2023-01-13T22:27:25.029Z,12.30
2023-01-13T22:30:15.937Z,12.35
2023-01-13T22:33:01.301Z,12.27
2023-01-13T22:35:54.454Z,11.23
2023-01-13T22:38:41.213Z,11.90
2023-01-13T22:41:27.085Z,9.80
2023-01-13T22:44:12.241Z,10.48
2023-01-13T22:46:57.635Z,11.73
2023-01-13T22:49:47.546Z,10.30
2023-01-13T22:52:34.528Z,10.43
2023-01-13T22:55:20.142Z,9.82
2023-01-13T22:58:06.003Z,10.30
2023-01-13T23:00:52.289Z,9.35
2023-01-13T23:03:38.024Z,10.07
2023-01-13T23:06:25.545Z,11.45
2023-01-13T23:09:11.567Z,10.15
2023-01-13T23:11:58.856Z,10.48
2023-01-13T23:14:44.531Z,10.18
2023-01-13T23:17:30.302Z,10.52
2023-01-13T23:20:16.312Z,9.88
2023-01-13T23:23:02.235Z,9.45
2023-01-13T23:25:53.600Z,9.52
2023-01-13T23:28:39.554Z,11.95
2023-01-13T23:31:25.129Z,10.65
2023-01-13T23:34:10.516Z,11.23
2023-01-13T23:36:55.884Z,11.32
2023-01-13T23:39:41.212Z,9.50
2023-01-13T23:42:26.564Z,10.38
2023-01-13T23:45:12.331Z,9.88
2023-01-13T23:47:57.793Z,9.82
2023-01-13T23:50:43.379Z,9.80
2023-01-13T23:53:33.596Z,10.77
2023-01-13T23:56:24.819Z,11.05
2023-01-13T23:59:10.373Z,11.53
